createdAt,value
2016-07-08T00:00:58.842Z,965.5
2016-07-08T00:01:58.842Z,965.49
2016-07-08T00:02:58.849Z,965.49
2016-07-08T00:03:58.869Z,965.5
2016-07-08T00:04:58.866Z,965.49
2016-07-08T00:05:58.888Z,965.44
2016-07-08T00:06:58.896Z,965.46
2016-07-08T00:07:58.903Z,965.46
2016-07-08T00:08:58.913Z,965.4
2016-07-08T00:09:58.908Z,965.39
2016-07-08T00:10:58.931Z,965.43
2016-07-08T00:11:58.930Z,965.41
2016-07-08T00:12:58.937Z,965.42
2016-07-08T00:13:58.957Z,965.41
2016-07-08T00:14:58.956Z,965.39
2016-07-08T00:15:58.961Z,965.39
2016-07-08T00:16:58.972Z,965.36
2016-07-08T00:17:58.995Z,965.36
2016-07-08T00:18:58.998Z,965.31
2016-07-08T00:19:59.010Z,965.32
2016-07-08T00:20:59.019Z,965.29
2016-07-08T00:21:59.029Z,965.27
2016-07-08T00:22:59.034Z,965.31
2016-07-08T00:23:59.045Z,965.3
2016-07-08T00:24:59.066Z,965.29
2016-07-08T00:25:59.052Z,965.28
2016-07-08T00:26:59.061Z,965.32
2016-07-08T00:27:59.079Z,965.28
2016-07-08T00:28:59.089Z,965.31
2016-07-08T00:29:59.097Z,965.29
2016-07-08T00:30:59.097Z,965.31
2016-07-08T00:31:59.105Z,965.28
2016-07-08T00:32:59.124Z,965.29
2016-07-08T00:33:59.124Z,965.25
2016-07-08T00:34:59.133Z,965.23
2016-07-08T00:35:59.149Z,965.25
2016-07-08T00:36:59.151Z,965.29
2016-07-08T00:37:59.170Z,965.26
2016-07-08T00:38:59.171Z,965.29
2016-07-08T00:39:59.177Z,965.31
2016-07-08T00:40:59.186Z,965.29
2016-07-08T00:41:59.195Z,965.27
2016-07-08T00:42:59.213Z,965.26
2016-07-08T00:43:59.212Z,965.3
2016-07-08T00:44:59.233Z,965.29
2016-07-08T00:45:59.239Z,965.32
2016-07-08T00:46:59.240Z,965.34
2016-07-08T00:47:59.246Z,965.32
2016-07-08T00:48:59.255Z,965.31
2016-07-08T00:49:59.265Z,965.34
2016-07-08T00:50:59.285Z,965.37
2016-07-08T00:51:59.282Z,965.33
2016-07-08T00:52:59.292Z,965.35
2016-07-08T00:53:59.300Z,965.31
2016-07-08T00:54:59.307Z,965.29
2016-07-08T00:55:59.326Z,965.26
2016-07-08T00:56:59.334Z,965.31
2016-07-08T00:57:59.337Z,965.31
2016-07-08T00:58:59.354Z,965.3
2016-07-08T00:59:59.362Z,965.29
2016-07-08T01:00:59.372Z,965.31
2016-07-08T01:01:59.379Z,965.32
2016-07-08T01:02:59.391Z,965.34
2016-07-08T01:03:59.398Z,965.31
2016-07-08T01:04:59.394Z,965.32
2016-07-08T01:05:59.415Z,965.3
2016-07-08T01:06:59.422Z,965.28
2016-07-08T01:07:59.434Z,965.26
2016-07-08T01:08:59.430Z,965.22
2016-07-08T01:09:59.440Z,965.25
2016-07-08T01:10:59.458Z,965.25
2016-07-08T01:11:59.460Z,965.22
2016-07-08T01:12:59.473Z,965.22
2016-07-08T01:13:59.486Z,965.22
2016-07-08T01:14:59.482Z,965.26
2016-07-08T01:15:59.502Z,965.27
2016-07-08T01:16:59.508Z,965.26
2016-07-08T01:17:59.518Z,965.27
2016-07-08T01:18:59.524Z,965.24
2016-07-08T01:19:59.538Z,965.21
2016-07-08T01:20:59.530Z,965.2
2016-07-08T01:21:59.541Z,965.22
2016-07-08T01:22:59.562Z,965.23
2016-07-08T01:23:59.561Z,965.22
2016-07-08T01:24:59.569Z,965.21
2016-07-08T01:25:59.577Z,965.21
2016-07-08T01:26:59.587Z,965.2
2016-07-08T01:27:59.604Z,965.22
2016-07-08T01:28:59.615Z,965.25
2016-07-08T01:29:59.613Z,965.25
2016-07-08T01:30:59.634Z,965.26
2016-07-08T01:31:59.637Z,965.23
2016-07-08T01:32:59.640Z,965.24
2016-07-08T01:33:59.658Z,965.21
2016-07-08T01:34:59.655Z,965.2
2016-07-08T01:35:59.664Z,965.18
2016-07-08T01:36:59.683Z,965.17
2016-07-08T01:37:59.692Z,965.13
2016-07-08T01:38:59.692Z,965.11
2016-07-08T01:39:59.699Z,965.08
2016-07-08T01:40:59.705Z,965.04
2016-07-08T01:41:59.715Z,965.07
2016-07-08T01:42:59.737Z,965.05
2016-07-08T01:43:59.745Z,965.03
2016-07-08T01:44:59.743Z,964.99
2016-07-08T01:45:59.752Z,965
2016-07-08T01:46:59.768Z,964.96
2016-07-08T01:47:59.768Z,964.97
2016-07-08T01:48:59.773Z,964.94
2016-07-08T01:49:59.783Z,964.92
2016-07-08T01:50:59.794Z,964.93
2016-07-08T01:51:59.802Z,964.94
2016-07-08T01:52:59.813Z,964.97
2016-07-08T01:53:59.824Z,965
2016-07-08T01:54:59.840Z,964.99
2016-07-08T01:55:59.849Z,964.94
2016-07-08T01:56:59.846Z,964.97
2016-07-08T01:57:59.865Z,964.95
2016-07-08T01:58:59.864Z,964.93
2016-07-08T01:59:59.884Z,964.93
2016-07-08T02:00:59.880Z,964.96
2016-07-08T02:01:59.899Z,964.95
2016-07-08T02:02:59.899Z,964.94
2016-07-08T02:03:59.908Z,964.95
2016-07-08T02:04:59.917Z,964.93
2016-07-08T02:05:59.937Z,964.93
2016-07-08T02:06:59.932Z,964.92
2016-07-08T02:07:59.951Z,964.95
2016-07-08T02:08:59.949Z,964.93
2016-07-08T02:09:59.972Z,964.95
2016-07-08T02:10:59.982Z,964.93
2016-07-08T02:11:59.979Z,964.94
2016-07-08T02:12:59.984Z,964.94
2016-07-08T02:14:00.006Z,964.89
2016-07-08T02:15:00.012Z,964.91
2016-07-08T02:16:00.012Z,964.9
2016-07-08T02:17:00.020Z,964.89
2016-07-08T02:18:00.029Z,964.89
2016-07-08T02:19:00.037Z,964.93
2016-07-08T02:20:00.044Z,964.92
2016-07-08T02:21:00.054Z,964.92
2016-07-08T02:22:00.074Z,964.91
2016-07-08T02:23:00.081Z,964.9
2016-07-08T02:24:00.081Z,964.91
2016-07-08T02:25:00.098Z,964.89
2016-07-08T02:26:00.101Z,964.9
2016-07-08T02:27:00.106Z,964.86
2016-07-08T02:28:00.124Z,964.83
2016-07-08T02:29:00.123Z,964.89
2016-07-08T02:30:00.129Z,964.86
2016-07-08T02:31:00.140Z,964.84
2016-07-08T02:32:00.159Z,964.81
2016-07-08T02:33:00.217Z,964.83
2016-07-08T02:34:00.177Z,964.84
2016-07-08T02:35:00.181Z,964.81
2016-07-08T02:36:00.193Z,964.86
2016-07-08T02:37:00.202Z,964.88
2016-07-08T02:38:00.208Z,964.86
2016-07-08T02:39:00.219Z,964.85
2016-07-08T02:40:00.229Z,964.8
2016-07-08T02:41:00.222Z,964.81
2016-07-08T02:42:00.242Z,964.83
2016-07-08T02:43:00.242Z,964.77
2016-07-08T02:44:00.262Z,964.79
2016-07-08T02:45:00.268Z,964.79
2016-07-08T02:46:00.269Z,964.77
2016-07-08T02:47:00.286Z,964.76
2016-07-08T02:48:00.285Z,964.81
2016-07-08T02:49:00.304Z,964.84
2016-07-08T02:50:00.303Z,964.8
2016-07-08T02:51:00.321Z,964.81
2016-07-08T02:52:00.329Z,964.84
2016-07-08T02:53:00.339Z,964.81
2016-07-08T02:54:00.336Z,964.84
2016-07-08T02:55:00.359Z,964.79
2016-07-08T02:56:00.354Z,964.81
2016-07-08T02:57:00.374Z,964.78
2016-07-08T02:58:00.381Z,964.77
2016-07-08T02:59:00.378Z,964.76
2016-07-08T03:00:00.388Z,964.75
2016-07-08T03:01:00.396Z,964.74
2016-07-08T03:02:00.408Z,964.76
2016-07-08T03:03:00.429Z,964.73
2016-07-08T03:04:00.433Z,964.71
2016-07-08T03:05:00.432Z,964.67
2016-07-08T03:06:00.440Z,964.69
2016-07-08T03:07:00.447Z,964.67
2016-07-08T03:08:00.466Z,964.68
2016-07-08T03:09:00.465Z,964.7
2016-07-08T03:10:00.475Z,964.71
2016-07-08T03:11:00.480Z,964.76
2016-07-08T03:12:00.490Z,964.77
2016-07-08T03:13:00.508Z,964.74
2016-07-08T03:14:00.518Z,964.8
2016-07-08T03:15:00.527Z,964.8
2016-07-08T03:16:00.536Z,964.79
2016-07-08T03:17:00.543Z,964.82
2016-07-08T03:18:00.550Z,964.83
2016-07-08T03:19:00.549Z,964.84
2016-07-08T03:20:00.570Z,964.82
2016-07-08T03:21:00.573Z,964.8
2016-07-08T03:22:00.576Z,964.78
2016-07-08T03:23:00.595Z,964.73
2016-07-08T03:24:00.594Z,964.72
2016-07-08T03:25:00.610Z,964.74
2016-07-08T03:26:00.608Z,964.69
2016-07-08T03:27:00.617Z,964.7
2016-07-08T03:28:00.638Z,964.68
2016-07-08T03:29:00.646Z,964.66
2016-07-08T03:30:00.641Z,964.7
2016-07-08T03:31:00.664Z,964.69
2016-07-08T03:32:00.673Z,964.66
2016-07-08T03:33:00.669Z,964.69
2016-07-08T03:34:00.680Z,964.67
2016-07-08T03:35:00.687Z,964.67
2016-07-08T03:36:00.695Z,964.64
2016-07-08T03:37:00.712Z,964.68
2016-07-08T03:38:00.722Z,964.71
2016-07-08T03:39:00.731Z,964.66
2016-07-08T03:40:00.741Z,964.67
2016-07-08T03:41:00.739Z,964.7
2016-07-08T03:42:00.757Z,964.69
2016-07-08T03:43:00.754Z,964.7
2016-07-08T03:44:00.774Z,964.69
2016-07-08T03:45:00.785Z,964.66
2016-07-08T03:46:00.791Z,964.68
2016-07-08T03:47:00.788Z,964.65
2016-07-08T03:48:00.798Z,964.63
2016-07-08T03:49:00.818Z,964.62
2016-07-08T03:50:00.817Z,964.62
2016-07-08T03:51:00.835Z,964.64
2016-07-08T03:52:00.842Z,964.61
2016-07-08T03:53:00.850Z,964.62
2016-07-08T03:54:00.860Z,964.6
2016-07-08T03:55:00.868Z,964.62
2016-07-08T03:56:00.868Z,964.57
2016-07-08T03:57:00.876Z,964.61
2016-07-08T03:58:00.891Z,964.57
2016-07-08T03:59:00.893Z,964.56
2016-07-08T04:00:00.917Z,964.54
2016-07-08T04:01:00.919Z,964.55
2016-07-08T04:02:00.928Z,964.48
2016-07-08T04:03:00.925Z,964.46
2016-07-08T04:04:00.939Z,964.45
2016-07-08T04:05:00.953Z,964.45
2016-07-08T04:06:00.948Z,964.43
2016-07-08T04:07:00.967Z,964.45
2016-07-08T04:08:00.981Z,964.39
2016-07-08T04:09:00.988Z,964.41
2016-07-08T04:10:00.985Z,964.38
2016-07-08T04:11:01.005Z,964.34
2016-07-08T04:12:01.012Z,964.32
2016-07-08T04:13:01.023Z,964.35
2016-07-08T04:14:01.024Z,964.33
2016-07-08T04:15:01.026Z,964.35
2016-07-08T04:16:01.047Z,964.36
2016-07-08T04:17:01.046Z,964.37
2016-07-08T04:18:01.062Z,964.36
2016-07-08T04:19:01.075Z,964.36
2016-07-08T04:20:01.069Z,964.38
2016-07-08T04:21:01.088Z,964.36
2016-07-08T04:22:01.098Z,964.34
2016-07-08T04:23:01.094Z,964.35
2016-07-08T04:24:01.117Z,964.3
2016-07-08T04:25:01.114Z,964.34
2016-07-08T04:26:01.123Z,964.31
2016-07-08T04:27:01.140Z,964.31
2016-07-08T04:28:01.150Z,964.31
2016-07-08T04:29:01.146Z,964.31
2016-07-08T04:30:01.156Z,964.34
2016-07-08T04:31:01.164Z,964.31
2016-07-08T04:32:01.172Z,964.32
2016-07-08T04:33:01.182Z,964.34
2016-07-08T04:34:01.191Z,964.33
2016-07-08T04:35:01.231Z,964.33
2016-07-08T04:36:01.218Z,964.33
2016-07-08T04:37:01.226Z,964.38
2016-07-08T04:38:01.234Z,964.33
2016-07-08T04:39:01.245Z,964.34
2016-07-08T04:40:01.242Z,964.35
2016-07-08T04:41:01.251Z,964.33
2016-07-08T04:42:01.270Z,964.33
2016-07-08T04:43:01.268Z,964.33
2016-07-08T04:44:01.288Z,964.33
2016-07-08T04:45:01.283Z,964.36
2016-07-08T04:46:01.307Z,964.37
2016-07-08T04:47:01.303Z,964.42
2016-07-08T04:48:01.311Z,964.39
2016-07-08T04:49:01.328Z,964.41
2016-07-08T04:50:01.329Z,964.42
2016-07-08T04:51:01.336Z,964.43
2016-07-08T04:52:01.345Z,964.43
2016-07-08T04:53:01.352Z,964.44
2016-07-08T04:54:01.370Z,964.49
2016-07-08T04:55:01.371Z,964.5
2016-07-08T04:56:01.381Z,964.57
2016-07-08T04:57:01.398Z,964.54
2016-07-08T04:58:01.398Z,964.6
2016-07-08T04:59:01.419Z,964.6
2016-07-08T05:00:01.413Z,964.59
2016-07-08T05:01:01.422Z,964.65
2016-07-08T05:02:01.443Z,964.67
2016-07-08T05:03:01.438Z,964.7
2016-07-08T05:04:01.459Z,964.66
2016-07-08T05:05:01.466Z,964.72
2016-07-08T05:06:01.477Z,964.7
2016-07-08T05:07:01.485Z,964.75
2016-07-08T05:08:01.493Z,964.76
2016-07-08T05:09:01.502Z,964.76
2016-07-08T05:10:01.511Z,964.78
2016-07-08T05:11:01.506Z,964.73
2016-07-08T05:12:01.528Z,964.78
2016-07-08T05:13:01.524Z,964.77
2016-07-08T05:14:01.544Z,964.78
2016-07-08T05:15:01.553Z,964.8
2016-07-08T05:16:01.560Z,964.8
2016-07-08T05:17:01.570Z,964.8
2016-07-08T05:18:01.717Z,964.8
2016-07-08T05:19:01.589Z,964.81
2016-07-08T05:20:01.597Z,964.78
2016-07-08T05:21:01.592Z,964.81
2016-07-08T05:22:01.862Z,964.82
2016-07-08T05:23:01.612Z,964.8
2016-07-08T05:24:01.629Z,964.8
2016-07-08T05:25:01.627Z,964.81
2016-07-08T05:26:01.889Z,964.82
2016-07-08T05:27:01.808Z,964.82
2016-07-08T05:28:01.655Z,964.82
2016-07-08T05:29:01.667Z,964.87
2016-07-08T05:30:01.882Z,964.82
2016-07-08T05:31:01.689Z,964.87
2016-07-08T05:32:01.891Z,964.91
2016-07-08T05:33:01.709Z,964.9
2016-07-08T05:34:02.006Z,964.89
2016-07-08T05:35:01.824Z,964.89
2016-07-08T05:36:01.734Z,964.86
2016-07-08T05:37:01.741Z,964.86
2016-07-08T05:38:01.900Z,964.85
2016-07-08T05:39:01.761Z,964.85
2016-07-08T05:40:01.766Z,964.89
2016-07-08T05:41:01.777Z,964.9
2016-07-08T05:42:02.024Z,964.87
2016-07-08T05:43:01.883Z,964.9
2016-07-08T05:44:01.792Z,964.89
2016-07-08T05:45:01.801Z,964.87
2016-07-08T05:46:02.070Z,964.9
2016-07-08T05:47:01.820Z,964.89
2016-07-08T05:48:01.938Z,964.88
2016-07-08T05:49:01.840Z,964.89
2016-07-08T05:50:01.844Z,964.89
2016-07-08T05:51:01.850Z,964.88
2016-07-08T05:52:02.015Z,964.83
2016-07-08T05:53:01.882Z,964.82
2016-07-08T05:54:01.879Z,964.82
2016-07-08T05:55:01.887Z,964.84
2016-07-08T05:56:01.894Z,964.79
2016-07-08T05:57:01.917Z,964.78
2016-07-08T05:58:01.961Z,964.8
2016-07-08T05:59:01.935Z,964.77
2016-07-08T06:00:01.931Z,964.78
2016-07-08T06:01:01.989Z,964.77
2016-07-08T06:02:01.960Z,964.76
2016-07-08T06:03:02.216Z,964.76
2016-07-08T06:04:01.963Z,964.76
2016-07-08T06:05:01.974Z,964.81
2016-07-08T06:06:02.034Z,964.8
2016-07-08T06:07:01.994Z,964.77
2016-07-08T06:08:02.013Z,964.79
2016-07-08T06:09:02.118Z,964.86
2016-07-08T06:10:02.027Z,964.88
2016-07-08T06:11:02.036Z,964.86
2016-07-08T06:12:02.034Z,964.91
2016-07-08T06:13:02.055Z,964.83
2016-07-08T06:14:02.402Z,964.86
2016-07-08T06:15:02.072Z,964.85
2016-07-08T06:16:02.073Z,964.91
2016-07-08T06:17:02.082Z,964.93
2016-07-08T06:18:02.399Z,964.94
2016-07-08T06:19:02.110Z,964.91
2016-07-08T06:20:02.478Z,964.95
2016-07-08T06:21:02.128Z,964.91
2016-07-08T06:22:02.488Z,964.96
2016-07-08T06:23:02.149Z,964.96
2016-07-08T06:24:02.155Z,964.92
2016-07-08T06:25:02.163Z,964.91
2016-07-08T06:26:02.273Z,964.87
2016-07-08T06:27:02.480Z,964.87
2016-07-08T06:28:02.189Z,964.9
2016-07-08T06:29:02.189Z,964.89
2016-07-08T06:30:02.210Z,964.93
2016-07-08T06:31:02.268Z,964.91
2016-07-08T06:32:02.222Z,964.89
2016-07-08T06:33:02.222Z,964.91
2016-07-08T06:34:02.244Z,964.89
2016-07-08T06:35:02.256Z,964.86
2016-07-08T06:36:02.500Z,964.84
2016-07-08T06:37:02.472Z,964.89
2016-07-08T06:38:02.272Z,964.85
2016-07-08T06:39:02.578Z,964.89
2016-07-08T06:40:02.285Z,964.89
2016-07-08T06:41:02.305Z,964.88
2016-07-08T06:42:02.564Z,964.89
2016-07-08T06:43:02.324Z,964.87
2016-07-08T06:44:02.472Z,964.89
2016-07-08T06:45:02.347Z,964.82
2016-07-08T06:46:02.638Z,964.81
2016-07-08T06:47:02.410Z,964.84
2016-07-08T06:48:02.367Z,964.78
2016-07-08T06:49:02.368Z,964.77
2016-07-08T06:50:02.728Z,964.77
2016-07-08T06:51:02.396Z,964.77
2016-07-08T06:52:02.596Z,964.72
2016-07-08T06:53:02.410Z,964.7
2016-07-08T06:54:02.524Z,964.71
2016-07-08T06:55:02.621Z,964.7
2016-07-08T06:56:02.429Z,964.7
2016-07-08T06:57:02.437Z,964.76
2016-07-08T06:58:02.446Z,964.74
2016-07-08T06:59:02.472Z,964.71
2016-07-08T07:00:02.524Z,964.73
2016-07-08T07:01:02.482Z,964.73
2016-07-08T07:02:02.582Z,964.71
2016-07-08T07:03:02.504Z,964.71
2016-07-08T07:04:02.503Z,964.73
2016-07-08T07:05:02.619Z,964.7
2016-07-08T07:06:02.531Z,964.72
2016-07-08T07:07:02.537Z,964.72
2016-07-08T07:08:02.548Z,964.74
2016-07-08T07:09:02.556Z,964.76
2016-07-08T07:10:02.554Z,964.76
2016-07-08T07:11:02.563Z,964.73
2016-07-08T07:12:02.670Z,964.72
2016-07-08T07:13:02.590Z,964.72
2016-07-08T07:14:02.601Z,964.7
2016-07-08T07:15:02.598Z,964.66
2016-07-08T07:16:02.617Z,964.66
2016-07-08T07:17:02.615Z,964.7
2016-07-08T07:18:02.625Z,964.69
2016-07-08T07:19:02.633Z,964.66
2016-07-08T07:20:02.644Z,964.64
2016-07-08T07:21:02.662Z,964.62
2016-07-08T07:22:02.664Z,964.63
2016-07-08T07:23:02.679Z,964.64
2016-07-08T07:24:02.732Z,964.61
2016-07-08T07:25:02.690Z,964.64
2016-07-08T07:26:02.696Z,964.66
2016-07-08T07:27:02.713Z,964.65
2016-07-08T07:28:02.726Z,964.68
2016-07-08T07:29:02.725Z,964.7
2016-07-08T07:30:02.746Z,964.68
2016-07-08T07:31:02.753Z,964.68
2016-07-08T07:32:02.753Z,964.68
2016-07-08T07:33:02.762Z,964.66
2016-07-08T07:34:02.782Z,964.71
2016-07-08T07:35:02.781Z,964.69
2016-07-08T07:36:02.790Z,964.66
2016-07-08T07:37:02.797Z,964.67
2016-07-08T07:38:02.816Z,964.63
2016-07-08T07:39:02.817Z,964.61
2016-07-08T07:40:02.824Z,964.59
2016-07-08T07:41:02.842Z,964.61
2016-07-08T07:42:02.844Z,964.63
2016-07-08T07:43:02.853Z,964.54
2016-07-08T07:44:02.865Z,964.57
2016-07-08T07:45:02.880Z,964.56
2016-07-08T07:46:02.890Z,964.51
2016-07-08T07:47:02.889Z,964.55
2016-07-08T07:48:02.908Z,964.55
2016-07-08T07:49:02.916Z,964.56
2016-07-08T07:50:02.926Z,964.56
2016-07-08T07:51:02.937Z,964.59
2016-07-08T07:52:02.943Z,964.55
2016-07-08T07:53:02.955Z,964.58
2016-07-08T07:54:02.953Z,964.59
2016-07-08T07:55:02.973Z,964.54
2016-07-08T07:56:02.970Z,964.54
2016-07-08T07:57:02.981Z,964.56
2016-07-08T07:58:02.990Z,964.52
2016-07-08T07:59:02.999Z,964.48
2016-07-08T08:00:03.015Z,964.5
2016-07-08T08:01:03.014Z,964.46
2016-07-08T08:02:03.034Z,964.45
2016-07-08T08:03:03.035Z,964.41
2016-07-08T08:04:03.041Z,964.44
2016-07-08T08:05:03.052Z,964.42
2016-07-08T08:06:03.065Z,964.41
2016-07-08T08:07:03.078Z,964.38
2016-07-08T08:08:03.088Z,964.35
2016-07-08T08:09:03.096Z,964.41
2016-07-08T08:10:03.098Z,964.38
2016-07-08T08:11:03.116Z,964.36
2016-07-08T08:12:03.125Z,964.38
2016-07-08T08:13:03.125Z,964.33
2016-07-08T08:14:03.145Z,964.33
2016-07-08T08:15:03.152Z,964.3
2016-07-08T08:16:03.153Z,964.32
2016-07-08T08:17:03.160Z,964.3
2016-07-08T08:18:03.180Z,964.27
2016-07-08T08:19:03.187Z,964.3
2016-07-08T08:20:03.190Z,964.29
2016-07-08T08:21:03.210Z,964.27
2016-07-08T08:22:03.209Z,964.31
2016-07-08T08:23:03.227Z,964.33
2016-07-08T08:24:03.237Z,964.3
2016-07-08T08:25:03.243Z,964.33
2016-07-08T08:26:03.254Z,964.35
2016-07-08T08:27:03.248Z,964.38
2016-07-08T08:28:03.271Z,964.32
2016-07-08T08:29:03.270Z,964.31
2016-07-08T08:30:03.280Z,964.29
2016-07-08T08:31:03.301Z,964.29
2016-07-08T08:32:03.307Z,964.23
2016-07-08T08:33:03.307Z,964.21
2016-07-08T08:34:03.327Z,964.23
2016-07-08T08:35:03.324Z,964.27
2016-07-08T08:36:03.334Z,964.28
2016-07-08T08:37:03.340Z,964.25
2016-07-08T08:38:03.353Z,964.24
2016-07-08T08:39:03.372Z,964.24
2016-07-08T08:40:03.380Z,964.21
2016-07-08T08:41:03.389Z,964.2
2016-07-08T08:42:03.391Z,964.21
2016-07-08T08:43:03.407Z,964.17
2016-07-08T08:44:03.408Z,964.17
2016-07-08T08:45:03.427Z,964.15
2016-07-08T08:46:03.424Z,964.18
2016-07-08T08:47:03.432Z,964.2
2016-07-08T08:48:03.452Z,964.17
2016-07-08T08:49:03.452Z,964.18
2016-07-08T08:50:03.469Z,964.18
2016-07-08T08:51:03.472Z,964.21
2016-07-08T08:52:03.479Z,964.16
2016-07-08T08:53:03.500Z,964.16
2016-07-08T08:54:03.496Z,964.12
2016-07-08T08:55:03.518Z,964.13
2016-07-08T08:57:03.528Z,964.11
2016-07-08T08:58:03.534Z,964.11
2016-07-08T08:59:03.545Z,964.1
2016-07-08T09:00:03.556Z,964.16
2016-07-08T09:01:03.560Z,964.12
2016-07-08T09:02:03.572Z,964.12
2016-07-08T09:03:03.579Z,964.17
2016-07-08T09:04:03.602Z,964.11
2016-07-08T09:05:03.599Z,964.08
2016-07-08T09:06:03.607Z,964.12
2016-07-08T09:07:03.620Z,964.11
2016-07-08T09:08:03.640Z,964.09
2016-07-08T09:09:03.639Z,964.18
2016-07-08T09:10:03.645Z,964.1
2016-07-08T09:11:03.666Z,964.13
2016-07-08T09:12:03.662Z,964.14
2016-07-08T09:13:03.672Z,964.11
2016-07-08T09:14:03.696Z,964.08
2016-07-08T09:15:03.694Z,964.05
2016-07-08T09:16:03.703Z,964.06
2016-07-08T09:17:03.712Z,964.08
2016-07-08T09:18:03.730Z,964.06
2016-07-08T09:19:03.731Z,964.07
2016-07-08T09:20:03.750Z,964.13
2016-07-08T09:21:03.748Z,964.15
2016-07-08T09:22:03.771Z,964.16
2016-07-08T09:23:03.766Z,964.15
2016-07-08T09:24:03.789Z,964.13
2016-07-08T09:25:03.794Z,964.15
2016-07-08T09:26:03.797Z,964.15
2016-07-08T09:27:03.816Z,964.13
2016-07-08T09:28:03.814Z,964.09
2016-07-08T09:29:03.834Z,964.13
2016-07-08T09:30:03.830Z,964.07
2016-07-08T09:31:03.842Z,964.07
2016-07-08T09:32:03.849Z,964.1
2016-07-08T09:33:03.865Z,964.11
2016-07-08T09:34:03.880Z,964.1
2016-07-08T09:35:03.891Z,964.06
2016-07-08T09:36:03.896Z,964.07
2016-07-08T09:37:03.899Z,964.06
2016-07-08T09:38:03.917Z,964.09
2016-07-08T09:39:03.926Z,964.09
2016-07-08T09:40:03.938Z,964.12
2016-07-08T09:41:03.944Z,964.11
2016-07-08T09:42:03.954Z,964.09
2016-07-08T09:43:03.962Z,964.09
2016-07-08T09:44:03.973Z,964.13
2016-07-08T09:45:03.979Z,964.11
2016-07-08T09:46:03.990Z,964.09
2016-07-08T09:47:03.990Z,964.08
2016-07-08T09:48:04.009Z,964.05
2016-07-08T09:49:04.008Z,964.04
2016-07-08T09:50:04.027Z,964.04
2016-07-08T09:51:04.040Z,964.05
2016-07-08T09:52:04.034Z,964.06
2016-07-08T09:53:04.054Z,964.02
2016-07-08T09:54:04.067Z,964.01
2016-07-08T09:55:04.073Z,964.03
2016-07-08T09:56:04.072Z,964.01
2016-07-08T09:57:04.082Z,964.02
2016-07-08T09:58:04.092Z,964.06
2016-07-08T09:59:04.099Z,964.03
2016-07-08T10:00:04.108Z,964.02
2016-07-08T10:01:04.132Z,964
2016-07-08T10:02:04.147Z,963.97
2016-07-08T10:03:04.151Z,963.97
2016-07-08T10:04:04.146Z,963.97
2016-07-08T10:05:04.158Z,963.98
2016-07-08T10:06:04.177Z,963.97
2016-07-08T10:07:04.187Z,963.97
2016-07-08T10:08:04.194Z,963.93
2016-07-08T10:09:04.193Z,963.95
2016-07-08T10:10:04.202Z,963.94
2016-07-08T10:11:04.213Z,963.95
2016-07-08T10:12:04.231Z,963.9
2016-07-08T10:13:04.233Z,963.91
2016-07-08T10:14:04.250Z,963.9
2016-07-08T10:15:04.249Z,963.86
2016-07-08T10:16:04.269Z,963.88
2016-07-08T10:17:04.279Z,963.87
2016-07-08T10:18:04.276Z,963.87
2016-07-08T10:19:04.288Z,963.89
2016-07-08T10:20:04.302Z,963.88
2016-07-08T10:21:04.305Z,963.85
2016-07-08T10:22:04.314Z,963.84
2016-07-08T10:23:04.320Z,963.83
2016-07-08T10:24:04.344Z,963.83
2016-07-08T10:25:04.353Z,963.85
2016-07-08T10:26:04.351Z,963.85
2016-07-08T10:27:04.369Z,963.81
2016-07-08T10:28:04.379Z,963.8
2016-07-08T10:29:04.387Z,963.8
2016-07-08T10:30:04.399Z,963.79
2016-07-08T10:31:04.401Z,963.8
2016-07-08T10:32:04.405Z,963.76
2016-07-08T10:33:04.418Z,963.73
2016-07-08T10:34:04.428Z,963.69
2016-07-08T10:35:04.446Z,963.67
2016-07-08T10:36:04.441Z,963.73
2016-07-08T10:37:04.466Z,963.68
2016-07-08T10:38:04.474Z,963.65
2016-07-08T10:39:04.484Z,963.66
2016-07-08T10:40:04.491Z,963.67
2016-07-08T10:41:04.490Z,963.65
2016-07-08T10:42:04.510Z,963.63
2016-07-08T10:43:04.509Z,963.62
2016-07-08T10:44:04.516Z,963.59
2016-07-08T10:45:04.528Z,963.6
2016-07-08T10:46:04.538Z,963.55
2016-07-08T10:47:04.547Z,963.56
2016-07-08T10:48:04.557Z,963.54
2016-07-08T10:49:04.569Z,963.53
2016-07-08T10:50:04.577Z,963.54
2016-07-08T10:51:04.585Z,963.46
2016-07-08T10:52:04.596Z,963.46
2016-07-08T10:53:04.604Z,963.49
2016-07-08T10:54:04.624Z,963.44
2016-07-08T10:55:04.626Z,963.48
2016-07-08T10:56:04.635Z,963.42
2016-07-08T10:57:04.652Z,963.41
2016-07-08T10:58:04.654Z,963.42
2016-07-08T10:59:04.673Z,963.38
2016-07-08T11:00:04.672Z,963.33
2016-07-08T11:01:04.681Z,963.34
2016-07-08T11:02:04.691Z,963.36
2016-07-08T11:03:04.699Z,963.36
2016-07-08T11:04:04.720Z,963.36
2016-07-08T11:05:04.726Z,963.33
2016-07-08T11:06:04.739Z,963.32
2016-07-08T11:07:04.741Z,963.31
2016-07-08T11:08:04.759Z,963.26
2016-07-08T11:09:04.767Z,963.31
2016-07-08T11:10:04.778Z,963.31
2016-07-08T11:11:04.787Z,963.31
2016-07-08T11:12:04.796Z,963.26
2016-07-08T11:13:04.796Z,963.23
2016-07-08T11:14:04.812Z,963.22
2016-07-08T11:15:04.826Z,963.24
2016-07-08T11:16:04.833Z,963.27
2016-07-08T11:17:04.834Z,963.32
2016-07-08T11:18:04.853Z,963.3
2016-07-08T11:19:04.862Z,963.29
2016-07-08T11:20:04.870Z,963.26
2016-07-08T11:21:04.868Z,963.29
2016-07-08T11:22:04.890Z,963.25
2016-07-08T11:23:04.889Z,963.24
2016-07-08T11:24:04.899Z,963.22
2016-07-08T11:25:04.916Z,963.23
2016-07-08T11:26:04.927Z,963.27
2016-07-08T11:27:04.937Z,963.22
2016-07-08T11:28:04.944Z,963.23
2016-07-08T11:29:04.946Z,963.21
2016-07-08T11:30:04.954Z,963.18
2016-07-08T11:31:04.965Z,963.16
2016-07-08T11:32:04.972Z,963.19
2016-07-08T11:33:04.982Z,963.17
2016-07-08T11:34:05.006Z,963.18
2016-07-08T11:35:05.004Z,963.17
2016-07-08T11:36:05.010Z,963.15
2016-07-08T11:37:05.033Z,963.15
2016-07-08T11:38:05.041Z,963.16
2016-07-08T11:39:05.040Z,963.19
2016-07-08T11:40:05.059Z,963.2
2016-07-08T11:41:05.070Z,963.11
2016-07-08T11:42:05.079Z,963.12
2016-07-08T11:43:05.089Z,963.06
2016-07-08T11:44:05.101Z,963.1
2016-07-08T11:45:05.100Z,963.11
2016-07-08T11:46:05.121Z,963.08
2016-07-08T11:47:05.129Z,963.07
2016-07-08T11:48:05.136Z,963.01
2016-07-08T11:49:05.145Z,963.01
2016-07-08T11:50:05.148Z,962.99
2016-07-08T11:51:05.155Z,962.96
2016-07-08T11:52:05.174Z,962.98
2016-07-08T11:53:05.173Z,962.96
2016-07-08T11:54:05.199Z,963.01
2016-07-08T11:55:05.195Z,963.03
2016-07-08T11:56:05.206Z,963.01
2016-07-08T11:57:05.226Z,962.99
2016-07-08T11:58:05.223Z,962.99
2016-07-08T11:59:05.233Z,962.99
2016-07-08T12:00:05.243Z,962.98
2016-07-08T12:01:05.273Z,963.01
2016-07-08T12:02:05.271Z,962.97
2016-07-08T12:03:05.283Z,962.99
2016-07-08T12:04:05.289Z,962.96
2016-07-08T12:05:05.291Z,962.96
2016-07-08T12:06:05.308Z,962.97
2016-07-08T12:07:05.317Z,962.91
2016-07-08T12:08:05.319Z,962.91
2016-07-08T12:09:05.326Z,962.83
2016-07-08T12:10:05.340Z,962.86
2016-07-08T12:11:05.348Z,962.88
2016-07-08T12:12:05.356Z,962.88
2016-07-08T12:13:05.377Z,962.81
2016-07-08T12:14:05.374Z,962.86
2016-07-08T12:15:05.397Z,962.81
2016-07-08T12:16:05.393Z,962.84
2016-07-08T12:17:05.415Z,962.84
2016-07-08T12:18:05.426Z,962.92
2016-07-08T12:19:05.438Z,962.87
2016-07-08T12:20:05.443Z,962.86
2016-07-08T12:21:05.452Z,962.83
2016-07-08T12:22:05.450Z,962.82
2016-07-08T12:23:05.461Z,962.75
2016-07-08T12:24:05.483Z,962.77
2016-07-08T12:25:05.492Z,962.73
2016-07-08T12:26:05.490Z,962.72
2016-07-08T12:27:05.510Z,962.68
2016-07-08T12:28:05.506Z,962.7
2016-07-08T12:29:05.517Z,962.65
2016-07-08T12:30:05.529Z,962.68
2016-07-08T12:31:05.548Z,962.67
2016-07-08T12:32:05.555Z,962.68
2016-07-08T12:33:05.569Z,962.65